Time;durP1;ratioP1;P1;durP2;ratioP2;P2;SDS_P1;SDS_P2;PMS_P1;PMS_P2;Temp;Humidity;BMP_temperature;BMP_pressure;BME280_temperature;BME280_humidity;BME280_pressure;Samples;Min_cycle;Max_cycle;Signal;HPM_P1;HPM_P2
2022/01/06 00:01:05;;;;;;;24.45;4.28;;;3.90;99.90;;;4.66;100.00;100214.38;5053562;28;20451;-77
2022/01/06 00:03:32;;;;;;;17.48;2.85;;;3.90;99.90;;;4.68;100.00;100222.38;5053580;28;20040;-77
2022/01/06 00:06:04;;;;;;;16.98;2.92;;;3.90;99.90;;;4.63;100.00;100223.34;5054634;28;20325;-78
2022/01/06 00:08:30;;;;;;;18.88;3.80;;;3.80;99.90;;;4.56;100.00;100217.50;5057758;28;20021;-77
2022/01/06 00:10:55;;;;;;;27.42;5.15;;;3.90;99.90;;;4.49;100.00;100219.97;5057576;28;20021;-79
2022/01/06 00:13:31;;;;;;;16.38;4.20;;;3.70;99.90;;;4.35;100.00;100219.34;5074600;28;20423;-76
2022/01/06 00:16:08;;;;;;;19.77;3.60;;;3.60;99.90;;;4.31;100.00;100231.38;5059556;28;20021;-79
2022/01/06 00:23:06;;;;;;;24.05;4.93;;;3.60;99.90;;;4.40;100.00;100230.22;5056989;28;20055;-78
2022/01/06 00:24:21;;;;;;;;;;;3.60;99.90;;;4.39;100.00;100236.09;5060302;28;20048;-78
2022/01/06 00:26:49;;;;;;;20.73;3.88;;;3.60;99.90;;;4.32;100.00;100236.59;5060993;28;20362;-77
2022/01/06 00:29:17;;;;;;;17.73;4.45;;;3.50;99.90;;;4.31;100.00;100229.41;5077372;28;20033;-79
2022/01/06 00:31:43;;;;;;;18.70;3.60;;;3.50;99.90;;;4.27;100.00;100233.97;5079186;28;20487;-76
2022/01/06 00:34:11;;;;;;;20.05;3.35;;;3.50;99.90;;;4.28;100.00;100237.53;5079371;28;20033;-77
2022/01/06 00:36:40;;;;;;;24.92;3.88;;;3.50;99.90;;;4.29;100.00;100241.94;5078460;28;20024;-76
2022/01/06 00:39:09;;;;;;;23.35;3.75;;;3.50;99.90;;;4.19;100.00;100243.91;5078251;28;20024;-77
2022/01/06 00:41:38;;;;;;;23.42;4.18;;;3.40;99.90;;;4.14;100.00;100246.81;5079058;28;20016;-76
2022/01/06 00:44:07;;;;;;;14.40;3.65;;;3.40;99.90;;;4.18;100.00;100250.56;5078665;28;20056;-78
2022/01/06 00:46:34;;;;;;;24.83;4.18;;;3.50;99.90;;;4.18;100.00;100252.50;5078724;28;20090;-78
2022/01/06 00:49:04;;;;;;;17.98;4.05;;;3.40;99.90;;;4.19;100.00;100248.63;5060341;28;20381;-78
2022/01/06 00:51:33;;;;;;;19.35;3.58;;;3.40;99.90;;;4.22;100.00;100259.84;5060360;28;20099;-78
2022/01/06 00:53:59;;;;;;;24.55;4.88;;;3.40;99.90;;;4.15;100.00;100264.22;5077989;28;20039;-76
2022/01/06 00:56:27;;;;;;;20.52;3.58;;;3.40;99.90;;;4.20;100.00;100267.66;5079039;28;20043;-77
2022/01/06 00:58:56;;;;;;;26.13;3.55;;;3.50;99.90;;;4.26;100.00;100271.06;5077405;28;20111;-78
2022/01/06 01:01:25;;;;;;;25.00;3.40;;;3.50;99.90;;;4.27;100.00;100278.19;5077957;28;20028;-78
2022/01/06 01:03:50;;;;;;;20.50;3.47;;;3.40;99.90;;;4.14;100.00;100277.22;5078218;28;20483;-77
2022/01/06 01:06:16;;;;;;;21.33;3.92;;;3.40;99.90;;;4.09;100.00;100271.03;5059930;28;20050;-77
2022/01/06 01:08:42;;;;;;;18.80;3.85;;;3.40;99.90;;;4.16;100.00;100288.78;5076987;28;20071;-77
2022/01/06 01:11:11;;;;;;;23.02;4.07;;;3.40;99.90;;;4.28;100.00;100287.31;5079198;28;20025;-77
2022/01/06 01:13:53;;;;;;;18.77;4.75;;;3.50;99.90;;;4.31;100.00;100287.47;5078276;28;20092;-78
2022/01/06 01:16:25;;;;;;;19.75;4.15;;;3.50;99.90;;;4.34;100.00;100288.78;5089836;28;20032;-78
2022/01/06 01:18:52;;;;;;;26.70;4.32;;;3.60;99.90;;;4.33;100.00;100289.94;5077399;28;20020;-77
2022/01/06 01:21:20;;;;;;;11.98;3.15;;;3.60;99.90;;;4.40;100.00;100284.72;5077350;28;20036;-78
2022/01/06 01:23:46;;;;;;;16.00;3.83;;;3.60;99.90;;;4.36;100.00;100286.50;5077819;28;20035;-79
2022/01/06 01:26:15;;;;;;;25.27;4.07;;;3.60;99.90;;;4.30;100.00;100277.56;5062762;28;20025;-78
2022/01/06 01:28:46;;;;;;;16.60;3.95;;;3.50;99.90;;;4.28;100.00;100288.13;5055335;28;20064;-78
2022/01/06 01:33:49;;;;;;;19.23;3.88;;;3.40;99.90;;;4.11;100.00;100282.59;5060560;28;20033;-76
2022/01/06 01:36:16;;;;;;;22.15;4.53;;;3.40;99.90;;;4.01;100.00;100292.03;5057038;28;20036;-77
2022/01/06 01:38:43;;;;;;;18.88;4.30;;;3.30;99.90;;;4.03;100.00;100303.56;5055310;28;20033;-79
2022/01/06 01:41:10;;;;;;;17.40;3.55;;;3.20;99.90;;;4.02;100.00;100303.88;5057013;28;20025;-76
2022/01/06 01:43:39;;;;;;;18.33;3.70;;;3.30;99.90;;;3.98;100.00;100309.22;5056779;28;20043;-76
2022/01/06 01:46:14;;;;;;;25.52;4.25;;;3.20;99.90;;;3.97;100.00;100313.16;5055614;28;20029;-75
2022/01/06 01:49:12;;;;;;;31.52;4.72;;;3.20;99.90;;;4.07;100.00;100310.06;5056563;28;20412;-77
2022/01/06 01:51:44;;;;;;;;;;;3.20;99.90;;;4.10;100.00;100317.72;5056701;28;20048;-78
2022/01/06 01:54:11;;;;;;;26.73;4.85;;;3.30;99.90;;;3.98;100.00;100316.72;5056239;28;19920;-78
2022/01/06 01:56:38;;;;;;;18.90;4.80;;;3.30;99.90;;;4.06;100.00;100324.19;5056466;28;20037;-79
2022/01/06 01:59:05;;;;;;;20.92;4.25;;;3.20;99.90;;;3.99;100.00;100315.56;5057544;28;20025;-77
2022/01/06 02:01:31;;;;;;;24.50;4.07;;;3.20;99.90;;;3.90;100.00;100314.75;5056773;28;20442;-79
2022/01/06 02:03:57;;;;;;;21.85;3.80;;;3.10;99.90;;;3.67;100.00;100323.13;5056898;28;20104;-76
2022/01/06 02:06:24;;;;;;;29.20;4.05;;;3.00;99.90;;;3.71;100.00;100321.38;5054892;28;20539;-76
2022/01/06 02:08:51;;;;;;;23.17;3.92;;;3.00;99.90;;;3.65;100.00;100322.66;5056608;28;20055;-76
2022/01/06 02:11:18;;;;;;;23.90;3.78;;;2.90;99.90;;;3.68;100.00;100326.72;5056193;28;20021;-76
2022/01/06 02:13:53;;;;;;;20.20;4.10;;;2.90;99.90;;;3.69;100.00;100331.13;5056183;28;20025;-77
2022/01/06 02:16:30;;;;;;;23.65;4.50;;;3.00;99.90;;;3.70;100.00;100329.97;5055073;28;20051;-78
2022/01/06 02:19:01;;;;;;;23.65;3.50;;;2.90;99.90;;;3.67;100.00;100325.06;5056940;28;20029;-78
2022/01/06 02:21:27;;;;;;;21.10;4.63;;;2.90;99.90;;;3.66;100.00;100334.53;5054685;28;20479;-76
2022/01/06 02:23:53;;;;;;;28.00;4.05;;;2.90;99.90;;;3.69;100.00;100331.13;5054837;28;20037;-77
2022/01/06 02:26:23;;;;;;;23.92;4.35;;;2.90;99.90;;;3.79;100.00;100332.78;5057775;28;20438;-80
2022/01/06 02:28:49;;;;;;;21.08;3.67;;;3.00;99.90;;;3.84;100.00;100333.44;5075711;28;20368;-76
2022/01/06 02:31:15;;;;;;;20.13;3.78;;;3.00;99.90;;;3.79;100.00;100335.53;5074398;28;20024;-77
2022/01/06 02:33:41;;;;;;;17.00;3.65;;;3.00;99.90;;;3.80;100.00;100334.38;5057401;28;20063;-78
2022/01/06 02:36:07;;;;;;;15.30;3.28;;;3.00;99.90;;;3.82;100.00;100345.94;5075314;28;20055;-80
2022/01/06 02:38:34;;;;;;;29.85;3.70;;;3.00;99.90;;;3.83;100.00;100351.13;5076501;28;20492;-78
2022/01/06 02:41:04;;;;;;;18.50;4.10;;;3.10;99.90;;;3.95;100.00;100348.56;5058111;28;20124;-77
2022/01/06 02:43:31;;;;;;;18.45;3.92;;;3.10;99.90;;;4.01;100.00;100352.81;5076633;28;20032;-77
2022/01/06 02:45:57;;;;;;;22.00;4.53;;;3.20;99.90;;;4.06;100.00;100355.41;5074965;28;20032;-76
2022/01/06 02:48:23;;;;;;;27.15;4.32;;;3.30;99.90;;;4.07;100.00;100365.34;5075614;28;20031;-78
2022/01/06 02:50:51;;;;;;;17.52;5.10;;;3.20;99.90;;;4.00;100.00;100359.47;5074940;28;20032;-79
2022/01/06 02:53:19;;;;;;;26.63;4.25;;;3.20;99.90;;;4.02;100.00;100370.19;5074753;28;20395;-79
2022/01/06 02:55:53;;;;;;;20.13;3.78;;;3.20;99.90;;;4.06;100.00;100371.19;5074581;28;20044;-78
2022/01/06 02:58:21;;;;;;;18.17;4.45;;;3.30;99.90;;;4.10;100.00;100367.47;5056862;28;20029;-76
2022/01/06 03:00:49;;;;;;;23.42;3.80;;;3.30;99.90;;;4.05;100.00;100367.59;5074686;28;20063;-78
2022/01/06 03:03:16;;;;;;;20.55;3.58;;;3.30;99.90;;;3.99;100.00;100376.34;5080511;28;20028;-79
2022/01/06 03:05:43;;;;;;;25.60;4.20;;;3.20;99.90;;;3.85;100.00;100382.03;5084232;28;20020;-79
2022/01/06 03:08:12;;;;;;;19.70;3.83;;;3.10;99.90;;;3.80;100.00;100384.91;5085333;28;20024;-77
2022/01/06 03:10:42;;;;;;;20.20;4.15;;;3.00;99.90;;;3.78;100.00;100389.13;5077078;28;20107;-78
2022/01/06 03:13:11;;;;;;;19.38;4.45;;;3.00;99.90;;;3.64;100.00;100381.78;5056969;28;20032;-76
2022/01/06 03:15:37;;;;;;;17.90;3.58;;;3.00;99.90;;;3.60;100.00;100385.47;5056526;28;20025;-78
2022/01/06 03:18:03;;;;;;;20.30;4.38;;;2.90;99.90;;;3.41;100.00;100380.19;5075209;28;20036;-77
2022/01/06 03:20:29;;;;;;;23.02;4.82;;;2.80;99.90;;;3.26;100.00;100383.38;5074443;28;20491;-78
2022/01/06 03:22:57;;;;;;;22.90;4.10;;;2.60;99.90;;;3.11;100.00;100386.53;5073812;28;20032;-79
2022/01/06 03:25:23;;;;;;;14.73;4.20;;;2.50;99.90;;;2.99;100.00;100383.50;5066093;28;20017;-78
2022/01/06 03:27:50;;;;;;;30.08;4.10;;;2.30;99.90;;;2.94;100.00;100386.41;5053132;28;20108;-77
2022/01/06 03:30:21;;;;;;;31.63;5.93;;;2.30;99.90;;;2.94;100.00;100389.16;5053350;28;20035;-77
2022/01/06 03:32:49;;;;;;;20.92;4.38;;;2.20;99.90;;;2.95;100.00;100396.31;5054664;28;20041;-79
2022/01/06 03:35:24;;;;;;;34.35;5.10;;;2.20;99.90;;;2.84;100.00;100401.25;5053332;28;20075;-79
2022/01/06 03:37:51;;;;;;;18.63;3.73;;;2.20;99.90;;;2.88;100.00;100402.28;5054972;28;20051;-78
2022/01/06 03:40:17;;;;;;;18.38;3.38;;;2.20;99.90;;;2.82;100.00;100402.72;5053689;28;20514;-78
2022/01/06 03:42:43;;;;;;;20.73;3.60;;;2.10;99.90;;;2.99;100.00;100414.66;5053905;28;20028;-76
2022/01/06 03:45:15;;;;;;;24.13;4.45;;;2.20;99.90;;;3.02;100.00;100407.72;5070001;28;20057;-77
2022/01/06 03:47:43;;;;;;;22.45;4.38;;;2.20;99.90;;;3.05;100.00;100409.88;5055870;28;20025;-77
2022/01/06 03:50:14;;;;;;;19.42;4.00;;;2.30;99.90;;;3.02;100.00;100419.56;5054579;28;20017;-76
2022/01/06 03:52:40;;;;;;;22.17;3.85;;;2.30;99.90;;;2.99;100.00;100416.59;5054729;28;20080;-77
2022/01/06 03:55:12;;;;;;;17.92;3.92;;;2.30;99.90;;;3.08;100.00;100421.06;5054309;28;20036;-78
2022/01/06 03:57:41;;;;;;;23.98;3.95;;;2.30;99.90;;;3.03;100.00;100417.63;5053587;28;20025;-77
2022/01/06 04:00:12;;;;;;;22.65;3.53;;;2.30;99.90;;;2.95;100.00;100421.16;5054606;28;20144;-77
2022/01/06 04:02:40;;;;;;;19.92;3.95;;;2.20;99.90;;;2.79;100.00;100420.69;5053733;28;20036;-78
2022/01/06 04:05:11;;;;;;;20.90;3.65;;;2.20;99.90;;;2.83;100.00;100427.19;5055324;28;20031;-77
2022/01/06 04:07:39;;;;;;;32.15;3.85;;;2.10;99.90;;;2.76;100.00;100434.28;5054023;28;20032;-75
2022/01/06 04:10:09;;;;;;;19.02;3.50;;;2.10;99.90;;;2.77;100.00;100435.91;5054446;28;20025;-76
2022/01/06 04:12:37;;;;;;;17.85;3.60;;;2.10;99.90;;;2.87;100.00;100433.72;5053073;28;20025;-78
2022/01/06 04:15:13;;;;;;;23.45;3.72;;;2.10;99.90;;;2.88;100.00;100442.81;5054514;28;20041;-78
2022/01/06 04:17:41;;;;;;;19.23;4.20;;;2.10;99.90;;;2.83;100.00;100440.16;5054457;28;20060;-77
2022/01/06 04:20:09;;;;;;;43.42;9.13;;;2.10;99.90;;;2.73;100.00;100443.97;5054770;28;20388;-77
2022/01/06 04:22:37;;;;;;;17.33;5.20;;;2.10;99.90;;;2.74;100.00;100453.06;5055221;28;20071;-80
2022/01/06 04:25:05;;;;;;;21.48;3.80;;;2.00;99.90;;;2.72;100.00;100450.66;5061070;28;20035;-77
2022/01/06 04:27:32;;;;;;;27.88;4.60;;;2.00;99.90;;;2.73;100.00;100449.50;5058366;28;20031;-75
2022/01/06 04:29:57;;;;;;;26.27;6.25;;;2.00;99.90;;;2.72;100.00;100452.59;5073848;28;20035;-78
2022/01/06 04:32:23;;;;;;;31.90;8.10;;;2.00;99.90;;;2.68;100.00;100463.41;5075228;28;20032;-77
2022/01/06 04:34:49;;;;;;;101.47;25.85;;;2.00;99.90;;;2.59;100.00;100466.09;5055543;28;20166;-76
2022/01/06 04:37:15;;;;;;;111.63;30.38;;;1.90;99.90;;;2.51;100.00;100468.75;5055591;28;20048;-78
2022/01/06 04:39:41;;;;;;;116.78;32.25;;;1.90;99.90;;;2.47;100.00;100471.31;5073965;28;20036;-78
2022/01/06 04:42:07;;;;;;;83.22;22.38;;;1.80;99.90;;;2.44;100.00;100463.66;5055587;28;20029;-78
2022/01/06 04:44:33;;;;;;;50.03;16.40;;;1.80;99.90;;;2.40;100.00;100467.34;5073966;28;20574;-79
2022/01/06 04:47:00;;;;;;;44.58;12.85;;;1.70;99.90;;;2.36;100.00;100463.56;5074333;28;20037;-79
2022/01/06 04:49:27;;;;;;;32.70;7.65;;;1.70;99.90;;;2.30;100.00;100478.59;5077163;28;20545;-79
2022/01/06 04:51:53;;;;;;;20.90;5.32;;;1.60;99.90;;;2.28;100.00;100478.88;5073129;28;20028;-75
2022/01/06 04:54:18;;;;;;;25.48;4.28;;;1.60;99.90;;;2.25;100.00;100474.00;5079343;28;20044;-79
2022/01/06 04:56:44;;;;;;;24.92;4.28;;;1.50;99.90;;;2.25;100.00;100482.25;5078120;28;20060;-76
2022/01/06 04:59:10;;;;;;;25.63;5.28;;;1.50;99.90;;;2.23;100.00;100487.25;5077235;28;20036;-76
2022/01/06 05:01:38;;;;;;;21.08;4.18;;;1.50;99.90;;;2.17;100.00;100491.25;5077464;28;20032;-76
2022/01/06 05:04:05;;;;;;;26.85;4.15;;;1.50;99.90;;;2.11;100.00;100498.00;5059352;28;20029;-75
2022/01/06 05:06:32;;;;;;;22.88;4.97;;;1.40;99.90;;;2.05;100.00;100489.00;5077730;28;20367;-76
2022/01/06 05:08:58;;;;;;;21.17;4.68;;;1.40;99.90;;;2.02;100.00;100492.34;5059289;28;20138;-76
2022/01/06 05:11:24;;;;;;;24.92;6.13;;;1.40;99.90;;;2.01;100.00;100504.50;5059791;28;20032;-77
2022/01/06 05:13:53;;;;;;;18.80;3.35;;;1.40;99.90;;;1.99;100.00;100501.22;5076792;28;20404;-78
2022/01/06 05:16:25;;;;;;;18.30;3.80;;;1.30;99.90;;;1.95;100.00;100500.22;5059151;28;20443;-76
2022/01/06 05:18:50;;;;;;;21.98;4.60;;;1.30;99.90;;;1.91;100.00;100499.19;5058875;28;20059;-75
2022/01/06 05:21:16;;;;;;;22.88;4.85;;;1.30;99.90;;;1.87;100.00;100498.16;5058388;28;20043;-76
2022/01/06 05:23:42;;;;;;;22.15;4.18;;;1.20;99.90;;;1.77;100.00;100501.09;5076979;28;20039;-76
2022/01/06 05:26:08;;;;;;;34.65;4.68;;;1.20;99.90;;;1.77;100.00;100512.13;5054653;28;20087;-75
2022/01/06 05:28:35;;;;;;;29.13;5.20;;;1.10;99.90;;;1.74;100.00;100509.97;5056376;28;20032;-77
2022/01/06 05:31:01;;;;;;;19.23;4.35;;;1.10;99.90;;;1.70;100.00;100517.22;5056040;28;20029;-78
2022/01/06 05:33:27;;;;;;;19.67;3.90;;;1.10;99.90;;;1.64;100.00;100521.16;5055325;28;20029;-76
2022/01/06 05:35:54;;;;;;;22.20;5.43;;;1.00;99.90;;;1.66;100.00;100529.94;5056131;28;20091;-76
2022/01/06 05:38:20;;;;;;;23.98;4.57;;;1.00;99.90;;;1.65;100.00;100531.06;5056760;28;20105;-76
2022/01/06 05:40:46;;;;;;;28.45;4.45;;;1.00;99.90;;;1.59;100.00;100535.03;5056560;28;20036;-76
2022/01/06 05:43:12;;;;;;;22.92;4.57;;;0.90;99.90;;;1.56;100.00;100533.69;5056817;28;20036;-76
2022/01/06 05:45:38;;;;;;;21.75;4.47;;;0.90;99.90;;;1.53;100.00;100539.81;5056803;28;20035;-77
2022/01/06 05:48:04;;;;;;;24.25;4.47;;;0.90;99.90;;;1.49;100.00;100547.03;5056426;28;20503;-75
2022/01/06 05:50:30;;;;;;;16.17;3.47;;;0.90;99.90;;;1.47;100.00;100540.19;5056529;28;20025;-76
2022/01/06 05:52:59;;;;;;;24.13;4.78;;;0.90;99.90;;;1.47;100.00;100549.25;5056534;28;20051;-76
2022/01/06 05:55:24;;;;;;;21.40;5.25;;;0.90;99.90;;;1.54;100.00;100551.63;5056429;28;20112;-77
2022/01/06 05:57:53;;;;;;;24.23;5.78;;;0.90;99.90;;;1.52;100.00;100554.69;5055823;28;20468;-78
2022/01/06 06:00:26;;;;;;;25.85;4.55;;;0.90;99.90;;;1.53;100.00;100567.34;5055156;28;20041;-77
2022/01/06 06:02:51;;;;;;;18.77;4.43;;;0.90;99.90;;;1.49;100.00;100563.53;5055789;28;20476;-76
2022/01/06 06:05:20;;;;;;;23.67;4.60;;;0.80;99.90;;;1.48;100.00;100572.06;5055289;28;20075;-79
2022/01/06 06:07:49;;;;;;;24.48;4.80;;;0.90;99.90;;;1.45;100.00;100568.00;5055405;28;20036;-76
2022/01/06 06:10:15;;;;;;;15.60;3.92;;;0.80;99.90;;;1.46;100.00;100583.41;5056468;28;20055;-76
2022/01/06 06:12:44;;;;;;;17.92;4.90;;;0.80;99.90;;;1.44;100.00;100574.63;5056086;28;20482;-76
2022/01/06 06:15:12;;;;;;;23.88;5.10;;;0.80;99.90;;;1.39;100.00;100574.69;5055348;28;20025;-76
2022/01/06 06:17:38;;;;;;;19.73;4.72;;;0.80;99.90;;;1.34;100.00;100585.78;5056188;28;20067;-76
2022/01/06 06:20:05;;;;;;;18.60;5.00;;;0.70;99.90;;;1.34;100.00;100590.47;5055641;28;20029;-76
2022/01/06 06:22:31;;;;;;;28.73;5.25;;;0.70;99.90;;;1.39;100.00;100577.44;5054551;28;20032;-77
2022/01/06 06:24:57;;;;;;;22.63;5.13;;;0.80;99.90;;;1.46;100.00;100588.91;5059901;28;20132;-75
2022/01/06 06:27:23;;;;;;;26.27;4.68;;;0.80;99.90;;;1.53;100.00;100586.59;5075441;28;20025;-75
2022/01/06 06:29:49;;;;;;;29.85;6.38;;;0.90;99.90;;;1.62;100.00;100594.97;5076423;28;20024;-75
2022/01/06 06:32:15;;;;;;;22.10;6.15;;;1.00;99.90;;;1.71;100.00;100584.09;5058404;28;20054;-77
2022/01/06 06:34:41;;;;;;;25.70;6.30;;;1.10;99.90;;;1.84;100.00;100591.56;5058314;28;20387;-77
2022/01/06 06:37:06;;;;;;;24.80;5.90;;;1.20;99.90;;;1.95;100.00;100596.63;5078408;28;20060;-78
2022/01/06 06:39:32;;;;;;;30.58;5.15;;;1.30;99.90;;;2.03;100.00;100598.69;5075668;28;20035;-75
2022/01/06 06:42:01;;;;;;;25.45;5.32;;;1.30;99.90;;;2.02;100.00;100599.00;5075255;28;20093;-77
2022/01/06 06:44:27;;;;;;;18.15;4.63;;;1.40;99.90;;;2.03;100.00;100604.19;5078061;28;20283;-78
2022/01/06 06:46:52;;;;;;;22.83;4.93;;;1.40;99.90;;;2.01;100.00;100605.63;5060485;28;20024;-78
2022/01/06 06:49:19;;;;;;;23.73;4.60;;;1.30;99.90;;;1.99;100.00;100605.91;5076488;28;20390;-79
2022/01/06 06:51:44;;;;;;;20.70;4.10;;;1.30;99.90;;;1.96;100.00;100609.25;5059303;28;20179;-77
2022/01/06 06:54:16;;;;;;;31.83;6.10;;;1.30;99.90;;;1.89;100.00;100610.78;5075934;28;20055;-78
2022/01/06 06:56:44;;;;;;;25.42;4.78;;;1.30;99.90;;;1.87;100.00;100604.75;5076968;28;20033;-79
2022/01/06 06:59:09;;;;;;;25.33;5.32;;;1.30;99.90;;;1.88;100.00;100620.97;5059118;28;20028;-78
2022/01/06 07:01:38;;;;;;;28.08;4.90;;;1.30;99.90;;;1.90;100.00;100623.41;5077146;28;20561;-78
2022/01/06 07:04:04;;;;;;;28.73;5.00;;;1.30;99.90;;;1.97;100.00;100635.69;5078985;28;20025;-78
2022/01/06 07:06:33;;;;;;;32.38;5.50;;;1.30;99.90;;;2.00;100.00;100639.78;5077771;28;20027;-79
2022/01/06 07:09:05;;;;;;;26.35;4.45;;;1.30;99.90;;;1.97;100.00;100643.13;5076739;28;20426;-81
2022/01/06 07:11:32;;;;;;;24.58;5.50;;;1.30;99.90;;;1.98;100.00;100644.78;5077448;28;20020;-78
2022/01/06 07:13:58;;;;;;;20.25;4.97;;;1.30;99.90;;;1.93;100.00;100659.44;5059031;28;20475;-78
2022/01/06 07:16:27;;;;;;;23.88;4.90;;;1.30;99.90;;;1.89;100.00;100652.94;5058026;28;20043;-77
2022/01/06 07:18:53;;;;;;;26.10;5.43;;;1.30;99.90;;;1.85;100.00;100657.38;5059176;28;20031;-79
2022/01/06 07:21:19;;;;;;;17.00;4.43;;;1.20;99.90;;;1.90;100.00;100665.56;5076220;28;20024;-77
2022/01/06 07:23:45;;;;;;;20.35;4.85;;;1.20;99.90;;;1.87;100.00;100663.41;5076897;28;20043;-77
2022/01/06 07:26:13;;;;;;;29.25;4.72;;;1.20;99.90;;;1.85;100.00;100673.91;5061933;28;20063;-77
2022/01/06 07:28:39;;;;;;;24.48;4.88;;;1.20;99.90;;;1.78;100.00;100673.47;5055304;28;20040;-77
2022/01/06 07:31:08;;;;;;;21.33;4.90;;;1.10;99.90;;;1.75;100.00;100682.34;5055657;28;20029;-78
2022/01/06 07:33:34;;;;;;;27.75;5.47;;;1.10;99.90;;;1.65;100.00;100689.91;5056147;28;20060;-79
2022/01/06 07:36:00;;;;;;;31.90;5.85;;;1.00;99.90;;;1.60;100.00;100690.81;5055542;28;20060;-78
2022/01/06 07:38:28;;;;;;;29.95;5.30;;;1.00;99.90;;;1.56;100.00;100687.84;5055626;28;20032;-78
2022/01/06 07:40:55;;;;;;;23.92;4.72;;;1.00;99.90;;;1.53;100.00;100696.69;5055368;28;20028;-76
2022/01/06 07:43:23;;;;;;;23.75;4.75;;;0.90;99.90;;;1.57;100.00;100703.22;5055483;28;20040;-77
2022/01/06 07:45:49;;;;;;;22.90;4.75;;;0.90;99.90;;;1.56;100.00;100707.13;5055714;28;20055;-77
2022/01/06 07:48:25;;;;;;;29.02;4.82;;;0.90;99.90;;;1.51;100.00;100718.19;5057850;28;20174;-78
2022/01/06 07:50:51;;;;;;;19.58;4.93;;;0.90;99.90;;;1.54;100.00;100728.59;5057705;28;20491;-75
2022/01/06 07:53:21;;;;;;;27.23;5.57;;;0.90;99.90;;;1.50;100.00;100726.75;5073656;28;20032;-76
2022/01/06 07:55:49;;;;;;;29.98;6.78;;;0.80;99.90;;;1.50;100.00;100730.31;5070770;28;20033;-77
2022/01/06 07:58:15;;;;;;;27.73;5.88;;;0.80;99.90;;;1.45;100.00;100727.63;5054080;28;20545;-78
2022/01/06 08:00:41;;;;;;;29.85;6.30;;;0.80;99.90;;;1.40;100.00;100730.47;5053715;28;20075;-76
2022/01/06 08:03:07;;;;;;;29.38;5.32;;;0.80;99.90;;;1.37;100.00;100738.47;5055026;28;20052;-78
2022/01/06 08:05:33;;;;;;;24.05;5.57;;;0.70;99.90;;;1.34;100.00;100739.06;5053360;28;20029;-79
2022/01/06 08:08:01;;;;;;;29.73;5.13;;;0.70;99.90;;;1.32;100.00;100739.34;5054749;28;20456;-77
2022/01/06 08:10:30;;;;;;;32.05;6.18;;;0.70;99.90;;;1.35;100.00;100744.25;5055680;28;20025;-78
2022/01/06 08:12:56;;;;;;;32.78;6.13;;;0.70;99.90;;;1.39;100.00;100739.81;5055054;28;20427;-78
2022/01/06 08:15:25;;;;;;;26.88;5.15;;;0.80;99.90;;;1.43;100.00;100740.06;5070363;28;20063;-77
2022/01/06 08:17:54;;;;;;;30.67;5.88;;;0.80;99.90;;;1.45;100.00;100738.63;5054990;28;20032;-79
2022/01/06 08:20:20;;;;;;;23.38;5.93;;;0.80;99.90;;;1.63;100.00;100752.72;5075769;22;20033;-81
2022/01/06 08:22:46;;;;;;;25.55;6.13;;;0.90;99.90;;;1.80;100.00;100750.28;5034322;28;20087;-81
2022/01/06 08:25:12;;;;;;;28.83;7.28;;;1.10;99.90;;;2.00;100.00;100763.75;5040838;28;20082;-82
2022/01/06 08:27:37;;;;;;;31.10;6.32;;;1.30;99.90;;;2.23;100.00;100764.78;5072977;28;20021;-80
2022/01/06 08:30:07;;;;;;;26.83;6.32;;;1.50;99.90;;;2.34;100.00;100767.06;5076054;28;20469;-80
2022/01/06 08:32:34;;;;;;;26.75;6.32;;;1.60;99.90;;;2.53;100.00;100764.28;5074692;28;20453;-81
2022/01/06 08:35:00;;;;;;;29.52;5.93;;;1.70;99.90;;;2.71;100.00;100763.41;5081936;28;20050;-82
2022/01/06 08:37:26;;;;;;;23.35;6.25;;;1.90;99.90;;;2.85;100.00;100766.19;5080169;28;20396;-80
2022/01/06 08:39:53;;;;;;;23.02;5.40;;;2.00;99.90;;;2.90;100.00;100775.19;5077835;28;20033;-81
2022/01/06 08:42:19;;;;;;;25.13;5.65;;;2.10;99.90;;;3.02;100.00;100782.94;5076606;28;20111;-79
2022/01/06 08:44:45;;;;;;;26.02;5.07;;;2.20;99.90;;;3.19;100.00;100772.16;5076886;28;20029;-82
2022/01/06 08:47:11;;;;;;;24.85;5.88;;;2.30;99.90;;;3.34;100.00;100785.63;5076231;28;20043;-81
2022/01/06 08:49:38;;;;;;;30.77;5.85;;;2.40;99.90;;;3.47;100.00;100792.28;5059140;28;20024;-82
2022/01/06 08:52:05;;;;;;;23.23;5.15;;;2.50;99.90;;;3.64;100.00;100778.66;5075540;28;20088;-82
2022/01/06 08:54:31;;;;;;;24.92;5.68;;;2.70;99.90;;;3.76;100.00;100787.25;5074816;28;20138;-80
2022/01/06 08:56:57;;;;;;;14.38;4.35;;;2.80;99.90;;;3.85;100.00;100781.81;5075845;28;20036;-82
2022/01/06 08:59:23;;;;;;;36.40;5.70;;;2.90;99.90;;;3.95;100.00;100785.16;5076937;28;20416;-81
2022/01/06 09:01:49;;;;;;;18.52;6.00;;;3.00;99.90;;;4.10;100.00;100784.81;5057865;28;20039;-82
2022/01/06 09:04:17;;;;;;;19.77;4.50;;;3.10;99.90;;;4.23;100.00;100794.22;5074325;28;20032;-81
2022/01/06 09:06:43;;;;;;;27.17;5.25;;;3.30;99.90;;;4.29;100.00;100792.94;5074380;28;20396;-81
2022/01/06 09:09:09;;;;;;;19.35;4.97;;;3.30;99.90;;;4.44;100.00;100791.75;5059765;28;20048;-79
2022/01/06 09:11:36;;;;;;;18.27;5.47;;;3.50;99.90;;;4.62;100.00;100793.53;5075862;28;20059;-82
2022/01/06 09:14:02;;;;;;;15.75;5.28;;;3.60;99.90;;;4.72;100.00;100807.91;5076124;28;20032;-83
2022/01/06 09:16:27;;;;;;;16.40;4.60;;;3.70;99.90;;;4.81;100.00;100796.09;5059683;28;20502;-82
2022/01/06 09:18:53;;;;;;;20.90;4.75;;;3.90;99.90;;;5.00;100.00;100807.78;5077362;28;20061;-80
2022/01/06 09:21:22;;;;;;;22.13;4.68;;;4.00;99.90;;;5.08;100.00;100807.81;5076393;28;20040;-83
2022/01/06 09:23:54;;;;;;;21.50;5.85;;;4.10;99.90;;;5.11;100.00;100809.13;5078310;28;20063;-84
2022/01/06 09:26:20;;;;;;;18.38;5.15;;;4.20;99.90;;;5.28;100.00;100804.50;5065503;28;20033;-80
2022/01/06 09:28:47;;;;;;;22.05;5.20;;;4.30;99.90;;;5.45;100.00;100814.00;5068152;28;20029;-83
2022/01/06 09:31:13;;;;;;;21.17;6.78;;;4.50;99.90;;;5.57;100.00;100815.03;5063626;28;20032;-81
2022/01/06 09:33:40;;;;;;;20.00;5.68;;;4.60;99.90;;;5.71;100.00;100806.59;5057401;28;20029;-81
2022/01/06 09:36:06;;;;;;;21.17;5.50;;;4.70;99.90;;;5.63;100.00;100818.47;5059985;28;20116;-83
2022/01/06 09:38:32;;;;;;;27.30;5.10;;;4.80;99.90;;;5.49;100.00;100818.56;5059580;28;20531;-83
2022/01/06 09:41:05;;;;;;;22.67;5.50;;;4.70;99.90;;;5.74;100.00;100826.19;5054175;28;20155;-83
2022/01/06 09:43:34;;;;;;;20.40;5.85;;;4.80;99.90;;;5.94;100.00;100832.31;5056798;28;20025;-81
2022/01/06 09:46:08;;;;;;;16.88;4.47;;;4.90;99.90;;;6.22;100.00;100833.66;5055831;28;20044;-83
2022/01/06 09:48:40;;;;;;;15.47;4.80;;;5.10;99.90;;;6.20;99.45;100838.69;5056704;28;20024;-81
2022/01/06 09:51:08;;;;;;;20.83;5.80;;;5.20;99.90;;;6.32;100.00;100836.91;5055008;28;20296;-82
2022/01/06 09:53:33;;;;;;;19.70;4.85;;;5.30;99.90;;;6.56;98.19;100841.16;5054476;28;20118;-81
2022/01/06 09:56:00;;;;;;;18.65;6.43;;;5.40;99.90;;;6.58;97.61;100836.13;5054792;28;20036;-81
2022/01/06 09:58:28;;;;;;;18.23;4.25;;;5.60;99.90;;;6.60;97.33;100842.97;5054384;28;20484;-83
2022/01/06 10:00:56;;;;;;;22.95;4.93;;;5.50;99.90;;;6.48;97.24;100845.59;5055539;28;20040;-83
2022/01/06 10:03:41;;;;;;;18.27;5.63;;;5.50;99.90;;;6.66;96.74;100843.59;5055173;28;20057;-80
2022/01/06 10:06:23;;;;;;;14.57;5.03;;;5.60;99.90;;;6.76;95.36;100840.50;5057041;28;20032;-82
2022/01/06 10:08:59;;;;;;;18.08;4.85;;;5.70;99.90;;;6.82;95.39;100833.63;5056554;28;20032;-79
2022/01/06 10:11:29;;;;;;;17.15;4.30;;;5.70;99.90;;;6.91;94.80;100837.22;5056339;28;20028;-80
2022/01/06 10:14:11;;;;;;;16.08;4.78;;;5.90;99.90;;;7.08;95.03;100836.38;5056081;28;20515;-82
2022/01/06 10:16:50;;;;;;;22.15;4.78;;;5.90;99.90;;;7.19;93.51;100832.09;5058497;28;20036;-81
2022/01/06 10:19:16;;;;;;;19.95;5.22;;;6.00;99.90;;;7.23;93.47;100833.06;5058731;28;20107;-81
2022/01/06 10:21:52;;;;;;;21.38;4.85;;;6.10;99.90;;;7.09;94.50;100838.00;5057838;28;20076;-82